Terminal Aerodrome Forecast
Issued by NWS Pocatello, ID

Home | Current Version | Previous Version | Text Only | Print | Product List | Glossary On
Versions: 1 2 3 4 5 6 7 8 9 10 11 12 13 14 15
000
FTUS45 KPIH 032322
TAFPIH
TAF
KPIH 032322Z 0400/0424 19012G22KT P6SM VCTS SCT070 BKN120CB
     FM040300 20010KT P6SM -SHRA SCT060 BKN090
     FM040700 13010KT P6SM SCT090 BKN150
     FM042100 24011KT P6SM VCTS SCT080 BKN120CB=

USA.gov is the U.S. government's official web portal to all federal, state and local government web resources and services.